La Feria, Texas
Current Conditions -  °F | °C
As of 4:35 AM on Monday 22 Dec 2014 (Local Time) from KT65 Reporting Station
Haze Haze  
Wind Chill: 60°   Ceiling: 700
Heat Index: 60°   Visibility: 3mi
Dew Point: 57°   Wind: 7mph
Humidity: 93%   Direction: 210°SSW
Pressure: 29.8"   Gusts: NA
Location:  26.16°N, 97.82°W
Report Text: KT65 221035Z AUTO 21006KT 3SM BR OVC007 15/14 A2980 RMK AO2 T01530141
Loading
Personal Weather Stations






























Interactive Weather Map New forecast layout! Learn more

10-Day Weather Forecast

Advertisements
Track Severe Weather on mobile